sensor_id;sensor_type;location;lat;lon;timestamp;temperature;humidity
38090;DHT22;23904;52.322;10.232;2023-05-10T00:01:55;14.30;81.10
38090;DHT22;23904;52.322;10.232;2023-05-10T00:04:21;14.20;81.50
38090;DHT22;23904;52.322;10.232;2023-05-10T00:06:47;14.30;81.80
38090;DHT22;23904;52.322;10.232;2023-05-10T00:09:12;14.20;81.90
38090;DHT22;23904;52.322;10.232;2023-05-10T00:11:38;14.20;82.30
38090;DHT22;23904;52.322;10.232;2023-05-10T00:14:04;14.20;82.50
38090;DHT22;23904;52.322;10.232;2023-05-10T00:16:29;14.20;83.20
38090;DHT22;23904;52.322;10.232;2023-05-10T00:18:55;14.20;83.30
38090;DHT22;23904;52.322;10.232;2023-05-10T00:21:20;14.20;83.80
38090;DHT22;23904;52.322;10.232;2023-05-10T00:23:46;14.20;84.10
38090;DHT22;23904;52.322;10.232;2023-05-10T00:26:11;14.20;84.30
38090;DHT22;23904;52.322;10.232;2023-05-10T00:28:37;14.10;84.80
38090;DHT22;23904;52.322;10.232;2023-05-10T00:31:03;14.10;85.20
38090;DHT22;23904;52.322;10.232;2023-05-10T00:33:28;14.00;85.50
38090;DHT22;23904;52.322;10.232;2023-05-10T00:35:54;13.90;86.30
38090;DHT22;23904;52.322;10.232;2023-05-10T00:38:19;13.90;86.80
38090;DHT22;23904;52.322;10.232;2023-05-10T00:40:45;13.90;87.20
38090;DHT22;23904;52.322;10.232;2023-05-10T00:43:10;14.00;87.40
38090;DHT22;23904;52.322;10.232;2023-05-10T00:45:37;14.10;87.30
38090;DHT22;23904;52.322;10.232;2023-05-10T00:48:03;14.00;87.60
38090;DHT22;23904;52.322;10.232;2023-05-10T00:50:31;14.00;88.30
38090;DHT22;23904;52.322;10.232;2023-05-10T00:52:59;14.00;88.60
38090;DHT22;23904;52.322;10.232;2023-05-10T00:55:25;14.00;89.30
38090;DHT22;23904;52.322;10.232;2023-05-10T00:57:52;14.00;89.00
38090;DHT22;23904;52.322;10.232;2023-05-10T01:00:18;14.00;89.50
38090;DHT22;23904;52.322;10.232;2023-05-10T01:02:47;14.00;90.00
38090;DHT22;23904;52.322;10.232;2023-05-10T01:05:13;14.00;90.20
38090;DHT22;23904;52.322;10.232;2023-05-10T01:07:39;13.90;90.30
38090;DHT22;23904;52.322;10.232;2023-05-10T01:10:06;13.90;90.50
38090;DHT22;23904;52.322;10.232;2023-05-10T01:12:35;13.80;90.70
38090;DHT22;23904;52.322;10.232;2023-05-10T01:15:03;13.80;90.80
38090;DHT22;23904;52.322;10.232;2023-05-10T01:17:31;13.80;91.10
38090;DHT22;23904;52.322;10.232;2023-05-10T01:19:56;13.70;91.20
38090;DHT22;23904;52.322;10.232;2023-05-10T01:25:32;13.70;91.50
38090;DHT22;23904;52.322;10.232;2023-05-10T01:34:06;13.60;92.30
38090;DHT22;23904;52.322;10.232;2023-05-10T01:36:45;13.60;92.30
38090;DHT22;23904;52.322;10.232;2023-05-10T01:39:25;13.60;92.50
38090;DHT22;23904;52.322;10.232;2023-05-10T01:42:20;13.60;92.60
38090;DHT22;23904;52.322;10.232;2023-05-10T01:47:58;13.50;93.10
38090;DHT22;23904;52.322;10.232;2023-05-10T01:50:31;13.50;93.30
38090;DHT22;23904;52.322;10.232;2023-05-10T01:53:00;13.50;93.60
38090;DHT22;23904;52.322;10.232;2023-05-10T01:55:30;13.40;93.70
38090;DHT22;23904;52.322;10.232;2023-05-10T01:58:04;13.40;93.90
38090;DHT22;23904;52.322;10.232;2023-05-10T02:00:34;13.50;93.80
38090;DHT22;23904;52.322;10.232;2023-05-10T02:03:05;13.50;93.90
38090;DHT22;23904;52.322;10.232;2023-05-10T02:05:32;13.40;94.30
38090;DHT22;23904;52.322;10.232;2023-05-10T02:07:59;13.40;94.50
38090;DHT22;23904;52.322;10.232;2023-05-10T02:10:28;13.50;94.40
38090;DHT22;23904;52.322;10.232;2023-05-10T02:12:55;13.50;94.70
38090;DHT22;23904;52.322;10.232;2023-05-10T02:15:24;13.40;94.70
38090;DHT22;23904;52.322;10.232;2023-05-10T02:17:52;13.40;95.00
38090;DHT22;23904;52.322;10.232;2023-05-10T02:20:20;13.40;95.10
38090;DHT22;23904;52.322;10.232;2023-05-10T02:22:49;13.40;95.40
38090;DHT22;23904;52.322;10.232;2023-05-10T02:25:18;13.40;95.40
38090;DHT22;23904;52.322;10.232;2023-05-10T02:27:46;13.50;95.20
38090;DHT22;23904;52.322;10.232;2023-05-10T02:30:13;13.40;95.30
38090;DHT22;23904;52.322;10.232;2023-05-10T02:32:39;13.40;95.40
38090;DHT22;23904;52.322;10.232;2023-05-10T02:35:06;13.30;95.40
38090;DHT22;23904;52.322;10.232;2023-05-10T02:37:33;13.30;95.60
38090;DHT22;23904;52.322;10.232;2023-05-10T02:40:00;13.30;95.80
38090;DHT22;23904;52.322;10.232;2023-05-10T02:42:29;13.20;95.90
38090;DHT22;23904;52.322;10.232;2023-05-10T02:45:05;13.20;96.10
38090;DHT22;23904;52.322;10.232;2023-05-10T02:47:33;13.20;96.10
38090;DHT22;23904;52.322;10.232;2023-05-10T02:49:59;13.20;96.40
38090;DHT22;23904;52.322;10.232;2023-05-10T02:52:34;13.20;96.30
38090;DHT22;23904;52.322;10.232;2023-05-10T02:55:05;13.10;96.20
38090;DHT22;23904;52.322;10.232;2023-05-10T02:57:35;13.10;96.60
38090;DHT22;23904;52.322;10.232;2023-05-10T03:00:07;13.10;96.60
38090;DHT22;23904;52.322;10.232;2023-05-10T03:02:33;13.10;97.10
38090;DHT22;23904;52.322;10.232;2023-05-10T03:04:59;13.10;96.70
38090;DHT22;23904;52.322;10.232;2023-05-10T03:07:25;13.10;96.70
38090;DHT22;23904;52.322;10.232;2023-05-10T03:09:52;13.00;97.10
38090;DHT22;23904;52.322;10.232;2023-05-10T03:18:17;12.90;97.50
38090;DHT22;23904;52.322;10.232;2023-05-10T03:21:05;12.90;97.60
38090;DHT22;23904;52.322;10.232;2023-05-10T03:23:36;13.00;97.70
38090;DHT22;23904;52.322;10.232;2023-05-10T03:26:06;13.00;97.60
38090;DHT22;23904;52.322;10.232;2023-05-10T03:28:34;12.90;97.60
38090;DHT22;23904;52.322;10.232;2023-05-10T03:31:02;12.90;97.60
38090;DHT22;23904;52.322;10.232;2023-05-10T03:33:28;13.00;97.60
38090;DHT22;23904;52.322;10.232;2023-05-10T03:35:54;12.90;97.80
38090;DHT22;23904;52.322;10.232;2023-05-10T03:38:20;12.90;97.80
38090;DHT22;23904;52.322;10.232;2023-05-10T03:40:45;12.90;97.90
38090;DHT22;23904;52.322;10.232;2023-05-10T03:43:11;12.90;97.90
38090;DHT22;23904;52.322;10.232;2023-05-10T03:45:36;12.90;98.10
38090;DHT22;23904;52.322;10.232;2023-05-10T03:48:02;13.00;97.80
38090;DHT22;23904;52.322;10.232;2023-05-10T03:50:28;12.90;98.10
38090;DHT22;23904;52.322;10.232;2023-05-10T03:52:53;12.90;98.10
38090;DHT22;23904;52.322;10.232;2023-05-10T03:55:19;13.00;98.00
38090;DHT22;23904;52.322;10.232;2023-05-10T03:57:45;12.90;98.10
38090;DHT22;23904;52.322;10.232;2023-05-10T04:00:11;13.00;98.40
38090;DHT22;23904;52.322;10.232;2023-05-10T04:02:37;13.00;98.50
38090;DHT22;23904;52.322;10.232;2023-05-10T04:05:03;13.00;98.50
38090;DHT22;23904;52.322;10.232;2023-05-10T04:07:28;13.10;98.60
38090;DHT22;23904;52.322;10.232;2023-05-10T04:09:54;13.10;98.30
38090;DHT22;23904;52.322;10.232;2023-05-10T04:12:20;13.10;98.40
38090;DHT22;23904;52.322;10.232;2023-05-10T04:14:45;13.10;98.50
38090;DHT22;23904;52.322;10.232;2023-05-10T04:17:11;13.10;98.50
38090;DHT22;23904;52.322;10.232;2023-05-10T04:19:36;13.00;98.80
38090;DHT22;23904;52.322;10.232;2023-05-10T04:22:02;13.00;98.90
38090;DHT22;23904;52.322;10.232;2023-05-10T04:24:28;13.00;98.90
38090;DHT22;23904;52.322;10.232;2023-05-10T04:26:54;13.00;99.00
38090;DHT22;23904;52.322;10.232;2023-05-10T04:29:20;13.00;99.20
38090;DHT22;23904;52.322;10.232;2023-05-10T04:31:46;13.10;99.20
38090;DHT22;23904;52.322;10.232;2023-05-10T04:34:11;13.00;99.70
38090;DHT22;23904;52.322;10.232;2023-05-10T04:36:37;12.90;99.70
38090;DHT22;23904;52.322;10.232;2023-05-10T04:39:04;12.80;99.90
38090;DHT22;23904;52.322;10.232;2023-05-10T04:41:30;12.80;99.90
38090;DHT22;23904;52.322;10.232;2023-05-10T04:43:55;12.80;99.90
38090;DHT22;23904;52.322;10.232;2023-05-10T04:46:21;12.90;99.90
38090;DHT22;23904;52.322;10.232;2023-05-10T04:48:47;12.90;99.90
38090;DHT22;23904;52.322;10.232;2023-05-10T04:51:12;12.90;99.90
38090;DHT22;23904;52.322;10.232;2023-05-10T04:53:38;12.90;99.90
38090;DHT22;23904;52.322;10.232;2023-05-10T04:56:06;12.80;99.90
38090;DHT22;23904;52.322;10.232;2023-05-10T04:58:32;12.70;99.90
38090;DHT22;23904;52.322;10.232;2023-05-10T05:01:06;12.80;99.90
38090;DHT22;23904;52.322;10.232;2023-05-10T05:03:32;12.70;99.90
38090;DHT22;23904;52.322;10.232;2023-05-10T05:05:58;12.70;99.90
38090;DHT22;23904;52.322;10.232;2023-05-10T05:08:24;12.60;99.90
38090;DHT22;23904;52.322;10.232;2023-05-10T05:10:49;12.60;99.90
38090;DHT22;23904;52.322;10.232;2023-05-10T05:13:15;12.60;99.90
38090;DHT22;23904;52.322;10.232;2023-05-10T05:15:41;12.60;99.90
38090;DHT22;23904;52.322;10.232;2023-05-10T05:18:06;12.60;99.90
38090;DHT22;23904;52.322;10.232;2023-05-10T05:20:32;12.70;99.90
38090;DHT22;23904;52.322;10.232;2023-05-10T05:22:59;12.70;99.90
38090;DHT22;23904;52.322;10.232;2023-05-10T05:25:25;12.70;99.90
38090;DHT22;23904;52.322;10.232;2023-05-10T05:27:50;12.80;99.90
38090;DHT22;23904;52.322;10.232;2023-05-10T05:30:16;12.80;99.90
38090;DHT22;23904;52.322;10.232;2023-05-10T05:32:42;12.70;99.90
38090;DHT22;23904;52.322;10.232;2023-05-10T05:35:07;12.70;99.90
38090;DHT22;23904;52.322;10.232;2023-05-10T05:37:33;12.80;99.90
38090;DHT22;23904;52.322;10.232;2023-05-10T05:39:59;12.80;99.90
38090;DHT22;23904;52.322;10.232;2023-05-10T05:42:26;12.90;99.90
38090;DHT22;23904;52.322;10.232;2023-05-10T05:44:52;13.00;99.90
38090;DHT22;23904;52.322;10.232;2023-05-10T05:47:17;13.00;99.90
38090;DHT22;23904;52.322;10.232;2023-05-10T05:49:43;13.00;99.90
38090;DHT22;23904;52.322;10.232;2023-05-10T05:52:11;13.00;99.90
38090;DHT22;23904;52.322;10.232;2023-05-10T05:54:36;13.00;99.90
38090;DHT22;23904;52.322;10.232;2023-05-10T05:57:02;13.00;99.90
38090;DHT22;23904;52.322;10.232;2023-05-10T05:59:28;13.00;99.90
38090;DHT22;23904;52.322;10.232;2023-05-10T06:01:54;12.90;99.90
38090;DHT22;23904;52.322;10.232;2023-05-10T06:04:20;13.00;99.90
38090;DHT22;23904;52.322;10.232;2023-05-10T06:06:45;13.10;99.90
38090;DHT22;23904;52.322;10.232;2023-05-10T06:09:11;13.10;99.90
38090;DHT22;23904;52.322;10.232;2023-05-10T06:11:37;13.20;99.90
38090;DHT22;23904;52.322;10.232;2023-05-10T06:14:03;13.20;99.90
38090;DHT22;23904;52.322;10.232;2023-05-10T06:16:30;13.10;99.90
38090;DHT22;23904;52.322;10.232;2023-05-10T06:18:56;13.10;99.90
38090;DHT22;23904;52.322;10.232;2023-05-10T06:21:21;13.10;99.90
38090;DHT22;23904;52.322;10.232;2023-05-10T06:23:47;13.10;99.90
38090;DHT22;23904;52.322;10.232;2023-05-10T06:26:13;13.00;99.90
38090;DHT22;23904;52.322;10.232;2023-05-10T06:28:39;12.90;99.90
38090;DHT22;23904;52.322;10.232;2023-05-10T06:31:05;12.90;99.90
38090;DHT22;23904;52.322;10.232;2023-05-10T06:33:32;12.90;99.90
38090;DHT22;23904;52.322;10.232;2023-05-10T06:35:57;12.70;99.90
38090;DHT22;23904;52.322;10.232;2023-05-10T06:38:23;12.70;99.90
38090;DHT22;23904;52.322;10.232;2023-05-10T06:40:49;12.70;99.90
38090;DHT22;23904;52.322;10.232;2023-05-10T06:43:14;12.60;99.90
38090;DHT22;23904;52.322;10.232;2023-05-10T06:45:40;12.60;99.90
38090;DHT22;23904;52.322;10.232;2023-05-10T06:48:06;12.60;99.90
38090;DHT22;23904;52.322;10.232;2023-05-10T06:50:32;12.40;99.90
38090;DHT22;23904;52.322;10.232;2023-05-10T06:52:59;12.40;99.90
38090;DHT22;23904;52.322;10.232;2023-05-10T06:55:25;12.40;99.90
38090;DHT22;23904;52.322;10.232;2023-05-10T06:57:51;12.50;99.90
38090;DHT22;23904;52.322;10.232;2023-05-10T07:00:17;12.40;99.90
38090;DHT22;23904;52.322;10.232;2023-05-10T07:02:43;12.40;99.90
38090;DHT22;23904;52.322;10.232;2023-05-10T07:05:09;12.50;99.90
38090;DHT22;23904;52.322;10.232;2023-05-10T07:07:35;12.60;99.90
38090;DHT22;23904;52.322;10.232;2023-05-10T07:10:01;12.70;99.90
38090;DHT22;23904;52.322;10.232;2023-05-10T07:12:27;12.80;99.90
38090;DHT22;23904;52.322;10.232;2023-05-10T07:14:53;12.80;99.90
38090;DHT22;23904;52.322;10.232;2023-05-10T07:17:18;12.80;99.90
38090;DHT22;23904;52.322;10.232;2023-05-10T07:19:44;12.80;99.90
38090;DHT22;23904;52.322;10.232;2023-05-10T07:22:09;12.80;99.90
38090;DHT22;23904;52.322;10.232;2023-05-10T07:24:35;13.00;99.90
38090;DHT22;23904;52.322;10.232;2023-05-10T07:27:01;13.00;99.90
38090;DHT22;23904;52.322;10.232;2023-05-10T07:29:26;13.20;99.90
38090;DHT22;23904;52.322;10.232;2023-05-10T07:31:52;13.30;99.90
38090;DHT22;23904;52.322;10.232;2023-05-10T07:34:18;13.40;99.90
38090;DHT22;23904;52.322;10.232;2023-05-10T07:36:43;13.50;99.90
38090;DHT22;23904;52.322;10.232;2023-05-10T07:39:09;13.60;99.90
38090;DHT22;23904;52.322;10.232;2023-05-10T07:41:34;13.70;99.90
38090;DHT22;23904;52.322;10.232;2023-05-10T07:44:00;13.80;99.90
38090;DHT22;23904;52.322;10.232;2023-05-10T07:46:26;14.00;99.90
38090;DHT22;23904;52.322;10.232;2023-05-10T07:48:51;14.00;99.90
38090;DHT22;23904;52.322;10.232;2023-05-10T07:51:17;14.20;99.90
38090;DHT22;23904;52.322;10.232;2023-05-10T07:53:42;14.20;99.90
38090;DHT22;23904;52.322;10.232;2023-05-10T07:56:25;14.20;99.90
38090;DHT22;23904;52.322;10.232;2023-05-10T07:58:53;14.40;99.90
38090;DHT22;23904;52.322;10.232;2023-05-10T08:01:19;14.50;99.90
38090;DHT22;23904;52.322;10.232;2023-05-10T08:03:45;14.50;99.90
38090;DHT22;23904;52.322;10.232;2023-05-10T08:06:11;14.60;99.90
38090;DHT22;23904;52.322;10.232;2023-05-10T08:08:36;14.70;99.90
38090;DHT22;23904;52.322;10.232;2023-05-10T08:11:03;14.90;99.90
38090;DHT22;23904;52.322;10.232;2023-05-10T08:13:29;15.00;99.90
38090;DHT22;23904;52.322;10.232;2023-05-10T08:15:54;15.00;99.90
38090;DHT22;23904;52.322;10.232;2023-05-10T08:18:20;15.10;99.90
38090;DHT22;23904;52.322;10.232;2023-05-10T08:20:46;15.00;99.90
38090;DHT22;23904;52.322;10.232;2023-05-10T08:23:14;15.10;99.90
38090;DHT22;23904;52.322;10.232;2023-05-10T08:25:40;15.00;99.90
38090;DHT22;23904;52.322;10.232;2023-05-10T08:28:06;15.00;99.90
38090;DHT22;23904;52.322;10.232;2023-05-10T08:30:31;15.00;99.90
38090;DHT22;23904;52.322;10.232;2023-05-10T08:32:57;15.00;99.90
38090;DHT22;23904;52.322;10.232;2023-05-10T08:35:22;15.00;99.90
38090;DHT22;23904;52.322;10.232;2023-05-10T08:37:48;14.90;99.90
38090;DHT22;23904;52.322;10.232;2023-05-10T08:40:14;14.90;99.90
38090;DHT22;23904;52.322;10.232;2023-05-10T08:42:43;14.90;99.90
38090;DHT22;23904;52.322;10.232;2023-05-10T08:45:16;14.90;99.90
38090;DHT22;23904;52.322;10.232;2023-05-10T08:47:43;14.80;99.90
38090;DHT22;23904;52.322;10.232;2023-05-10T08:50:09;14.80;99.90
38090;DHT22;23904;52.322;10.232;2023-05-10T08:52:38;14.90;99.90
38090;DHT22;23904;52.322;10.232;2023-05-10T08:55:06;14.90;99.90
38090;DHT22;23904;52.322;10.232;2023-05-10T08:57:32;14.90;99.90
38090;DHT22;23904;52.322;10.232;2023-05-10T09:00:00;14.90;99.90
38090;DHT22;23904;52.322;10.232;2023-05-10T09:02:26;14.80;99.90
38090;DHT22;23904;52.322;10.232;2023-05-10T09:04:52;14.70;99.90
38090;DHT22;23904;52.322;10.232;2023-05-10T09:07:18;14.60;99.90
38090;DHT22;23904;52.322;10.232;2023-05-10T09:09:45;14.60;99.90
38090;DHT22;23904;52.322;10.232;2023-05-10T09:12:12;14.60;99.90
38090;DHT22;23904;52.322;10.232;2023-05-10T09:14:38;14.60;99.90
38090;DHT22;23904;52.322;10.232;2023-05-10T09:17:04;14.50;99.90
38090;DHT22;23904;52.322;10.232;2023-05-10T09:19:30;14.60;99.90
38090;DHT22;23904;52.322;10.232;2023-05-10T09:21:55;14.60;99.90
38090;DHT22;23904;52.322;10.232;2023-05-10T09:24:25;14.60;99.90
38090;DHT22;23904;52.322;10.232;2023-05-10T09:26:57;14.50;99.90
38090;DHT22;23904;52.322;10.232;2023-05-10T09:29:23;14.60;99.90
38090;DHT22;23904;52.322;10.232;2023-05-10T09:31:50;14.50;99.90
38090;DHT22;23904;52.322;10.232;2023-05-10T09:34:29;14.60;99.90
38090;DHT22;23904;52.322;10.232;2023-05-10T09:36:59;14.50;99.90
38090;DHT22;23904;52.322;10.232;2023-05-10T09:39:36;14.50;99.90
38090;DHT22;23904;52.322;10.232;2023-05-10T09:42:09;14.50;99.90
38090;DHT22;23904;52.322;10.232;2023-05-10T09:44:35;14.50;99.90
38090;DHT22;23904;52.322;10.232;2023-05-10T09:47:02;14.50;99.90
38090;DHT22;23904;52.322;10.232;2023-05-10T09:49:28;14.50;99.90
38090;DHT22;23904;52.322;10.232;2023-05-10T09:52:07;14.60;99.90
38090;DHT22;23904;52.322;10.232;2023-05-10T09:54:34;14.50;99.90
38090;DHT22;23904;52.322;10.232;2023-05-10T09:57:00;14.50;99.90
38090;DHT22;23904;52.322;10.232;2023-05-10T09:59:27;14.60;99.90
38090;DHT22;23904;52.322;10.232;2023-05-10T10:01:56;14.40;99.90
38090;DHT22;23904;52.322;10.232;2023-05-10T10:04:23;14.40;99.90
38090;DHT22;23904;52.322;10.232;2023-05-10T10:06:59;14.40;99.90
38090;DHT22;23904;52.322;10.232;2023-05-10T10:09:26;14.40;99.90
38090;DHT22;23904;52.322;10.232;2023-05-10T10:11:52;14.40;99.90
38090;DHT22;23904;52.322;10.232;2023-05-10T10:14:19;14.60;99.90
38090;DHT22;23904;52.322;10.232;2023-05-10T10:16:46;14.60;99.90
38090;DHT22;23904;52.322;10.232;2023-05-10T10:19:12;14.70;99.90
38090;DHT22;23904;52.322;10.232;2023-05-10T10:21:37;14.70;99.90
38090;DHT22;23904;52.322;10.232;2023-05-10T10:24:03;14.70;99.90
38090;DHT22;23904;52.322;10.232;2023-05-10T10:26:33;14.70;99.90
38090;DHT22;23904;52.322;10.232;2023-05-10T10:29:15;14.60;99.90
38090;DHT22;23904;52.322;10.232;2023-05-10T10:32:10;14.50;99.90
38090;DHT22;23904;52.322;10.232;2023-05-10T10:34:42;14.50;99.90
38090;DHT22;23904;52.322;10.232;2023-05-10T10:37:08;14.40;99.90
38090;DHT22;23904;52.322;10.232;2023-05-10T10:39:33;14.50;99.90
38090;DHT22;23904;52.322;10.232;2023-05-10T10:42:01;14.60;99.90
38090;DHT22;23904;52.322;10.232;2023-05-10T10:46:59;14.80;99.90
38090;DHT22;23904;52.322;10.232;2023-05-10T10:49:28;15.00;99.90
38090;DHT22;23904;52.322;10.232;2023-05-10T10:55:08;15.20;99.90
38090;DHT22;23904;52.322;10.232;2023-05-10T11:00:29;15.30;99.90
38090;DHT22;23904;52.322;10.232;2023-05-10T11:03:11;15.20;99.90
38090;DHT22;23904;52.322;10.232;2023-05-10T11:05:47;15.20;99.90
38090;DHT22;23904;52.322;10.232;2023-05-10T11:08:30;15.30;99.90
38090;DHT22;23904;52.322;10.232;2023-05-10T11:16:23;15.80;99.90
38090;DHT22;23904;52.322;10.232;2023-05-10T11:21:28;16.10;99.90
38090;DHT22;23904;52.322;10.232;2023-05-10T11:23:56;16.40;99.90
38090;DHT22;23904;52.322;10.232;2023-05-10T11:26:41;16.70;99.90
38090;DHT22;23904;52.322;10.232;2023-05-10T11:29:07;16.50;99.90
38090;DHT22;23904;52.322;10.232;2023-05-10T11:31:33;16.40;99.90
38090;DHT22;23904;52.322;10.232;2023-05-10T11:34:00;16.50;99.90
38090;DHT22;23904;52.322;10.232;2023-05-10T11:36:37;16.70;99.90
38090;DHT22;23904;52.322;10.232;2023-05-10T11:39:04;16.60;99.90
38090;DHT22;23904;52.322;10.232;2023-05-10T11:41:30;16.60;99.90
38090;DHT22;23904;52.322;10.232;2023-05-10T11:43:57;16.70;99.90
38090;DHT22;23904;52.322;10.232;2023-05-10T11:46:25;16.80;99.90
38090;DHT22;23904;52.322;10.232;2023-05-10T11:48:55;16.70;99.90
38090;DHT22;23904;52.322;10.232;2023-05-10T11:51:23;16.70;99.90
38090;DHT22;23904;52.322;10.232;2023-05-10T11:53:52;16.90;99.90
38090;DHT22;23904;52.322;10.232;2023-05-10T11:56:18;17.20;99.90
38090;DHT22;23904;52.322;10.232;2023-05-10T11:58:43;17.40;99.90
38090;DHT22;23904;52.322;10.232;2023-05-10T12:01:10;17.40;99.90
38090;DHT22;23904;52.322;10.232;2023-05-10T12:03:36;17.60;99.90
38090;DHT22;23904;52.322;10.232;2023-05-10T12:06:02;17.40;99.90
38090;DHT22;23904;52.322;10.232;2023-05-10T12:08:29;17.40;99.90
38090;DHT22;23904;52.322;10.232;2023-05-10T12:11:07;17.50;99.90
38090;DHT22;23904;52.322;10.232;2023-05-10T12:13:41;17.50;99.90
38090;DHT22;23904;52.322;10.232;2023-05-10T12:18:40;17.50;99.90
38090;DHT22;23904;52.322;10.232;2023-05-10T12:21:07;17.70;99.90
38090;DHT22;23904;52.322;10.232;2023-05-10T12:23:32;17.70;99.90
38090;DHT22;23904;52.322;10.232;2023-05-10T12:26:04;17.80;99.90
38090;DHT22;23904;52.322;10.232;2023-05-10T12:28:31;17.90;99.90
38090;DHT22;23904;52.322;10.232;2023-05-10T12:30:59;17.80;99.90
38090;DHT22;23904;52.322;10.232;2023-05-10T12:33:26;18.00;99.90
38090;DHT22;23904;52.322;10.232;2023-05-10T12:35:53;18.10;99.90
38090;DHT22;23904;52.322;10.232;2023-05-10T12:38:26;18.20;99.90
38090;DHT22;23904;52.322;10.232;2023-05-10T12:41:01;18.20;99.90
38090;DHT22;23904;52.322;10.232;2023-05-10T12:43:31;18.20;99.90
38090;DHT22;23904;52.322;10.232;2023-05-10T12:45:57;18.10;99.90
38090;DHT22;23904;52.322;10.232;2023-05-10T12:48:24;18.20;99.90
38090;DHT22;23904;52.322;10.232;2023-05-10T12:50:49;18.40;99.90
38090;DHT22;23904;52.322;10.232;2023-05-10T12:53:15;18.50;99.90
38090;DHT22;23904;52.322;10.232;2023-05-10T12:55:42;18.60;99.90
38090;DHT22;23904;52.322;10.232;2023-05-10T12:58:08;18.30;99.90
38090;DHT22;23904;52.322;10.232;2023-05-10T13:00:34;18.20;99.90
38090;DHT22;23904;52.322;10.232;2023-05-10T13:03:00;18.40;99.90
38090;DHT22;23904;52.322;10.232;2023-05-10T13:05:25;18.30;99.90
38090;DHT22;23904;52.322;10.232;2023-05-10T13:07:51;18.30;99.90
38090;DHT22;23904;52.322;10.232;2023-05-10T13:10:16;18.40;99.90
38090;DHT22;23904;52.322;10.232;2023-05-10T13:12:42;18.40;99.90
38090;DHT22;23904;52.322;10.232;2023-05-10T13:15:08;18.50;99.90
38090;DHT22;23904;52.322;10.232;2023-05-10T13:17:34;18.50;99.90
38090;DHT22;23904;52.322;10.232;2023-05-10T13:19:59;18.60;99.90
38090;DHT22;23904;52.322;10.232;2023-05-10T13:22:25;18.70;99.90
38090;DHT22;23904;52.322;10.232;2023-05-10T13:24:50;18.70;99.90
38090;DHT22;23904;52.322;10.232;2023-05-10T13:27:16;18.50;99.90
38090;DHT22;23904;52.322;10.232;2023-05-10T13:29:41;18.40;99.90
38090;DHT22;23904;52.322;10.232;2023-05-10T13:32:07;18.30;99.90
38090;DHT22;23904;52.322;10.232;2023-05-10T13:34:33;18.30;99.90
38090;DHT22;23904;52.322;10.232;2023-05-10T13:37:01;18.30;99.90
38090;DHT22;23904;52.322;10.232;2023-05-10T13:39:26;18.40;99.90
38090;DHT22;23904;52.322;10.232;2023-05-10T13:41:52;18.40;99.90
38090;DHT22;23904;52.322;10.232;2023-05-10T13:44:17;18.60;99.90
38090;DHT22;23904;52.322;10.232;2023-05-10T13:46:43;18.60;99.90
38090;DHT22;23904;52.322;10.232;2023-05-10T13:49:09;18.60;99.90
38090;DHT22;23904;52.322;10.232;2023-05-10T13:51:35;18.60;99.90
38090;DHT22;23904;52.322;10.232;2023-05-10T13:54:01;18.60;99.90
38090;DHT22;23904;52.322;10.232;2023-05-10T13:56:27;18.70;99.90
38090;DHT22;23904;52.322;10.232;2023-05-10T13:58:53;18.70;99.90
38090;DHT22;23904;52.322;10.232;2023-05-10T14:01:19;18.70;99.90
38090;DHT22;23904;52.322;10.232;2023-05-10T14:03:44;18.70;99.90
38090;DHT22;23904;52.322;10.232;2023-05-10T14:06:10;18.80;99.90
38090;DHT22;23904;52.322;10.232;2023-05-10T14:08:36;18.80;99.90
38090;DHT22;23904;52.322;10.232;2023-05-10T14:11:01;19.10;99.90
38090;DHT22;23904;52.322;10.232;2023-05-10T14:13:27;19.30;99.90
38090;DHT22;23904;52.322;10.232;2023-05-10T14:15:54;19.30;99.90
38090;DHT22;23904;52.322;10.232;2023-05-10T14:18:19;19.20;99.90
38090;DHT22;23904;52.322;10.232;2023-05-10T14:20:45;19.30;99.90
38090;DHT22;23904;52.322;10.232;2023-05-10T14:23:11;19.30;99.90
38090;DHT22;23904;52.322;10.232;2023-05-10T14:25:38;19.30;99.90
38090;DHT22;23904;52.322;10.232;2023-05-10T14:28:05;19.40;99.90
38090;DHT22;23904;52.322;10.232;2023-05-10T14:30:31;19.30;99.90
38090;DHT22;23904;52.322;10.232;2023-05-10T14:32:58;19.30;99.90
38090;DHT22;23904;52.322;10.232;2023-05-10T14:35:23;19.30;99.90
38090;DHT22;23904;52.322;10.232;2023-05-10T14:37:49;19.30;99.90
38090;DHT22;23904;52.322;10.232;2023-05-10T14:40:15;19.30;99.90
38090;DHT22;23904;52.322;10.232;2023-05-10T14:42:42;19.30;99.90
38090;DHT22;23904;52.322;10.232;2023-05-10T14:45:09;19.20;99.90
38090;DHT22;23904;52.322;10.232;2023-05-10T14:47:35;19.20;99.90
38090;DHT22;23904;52.322;10.232;2023-05-10T14:50:00;19.20;99.90
38090;DHT22;23904;52.322;10.232;2023-05-10T14:52:27;19.00;99.90
38090;DHT22;23904;52.322;10.232;2023-05-10T14:54:52;18.80;99.90
38090;DHT22;23904;52.322;10.232;2023-05-10T14:57:18;18.70;99.90
38090;DHT22;23904;52.322;10.232;2023-05-10T14:59:44;18.70;99.90
38090;DHT22;23904;52.322;10.232;2023-05-10T15:02:09;18.70;99.90
38090;DHT22;23904;52.322;10.232;2023-05-10T15:04:35;18.60;99.90
38090;DHT22;23904;52.322;10.232;2023-05-10T15:07:01;18.60;99.90
38090;DHT22;23904;52.322;10.232;2023-05-10T15:09:26;18.70;99.90
38090;DHT22;23904;52.322;10.232;2023-05-10T15:11:55;18.70;99.90
38090;DHT22;23904;52.322;10.232;2023-05-10T15:14:21;18.70;99.90
38090;DHT22;23904;52.322;10.232;2023-05-10T15:16:47;18.70;99.90
38090;DHT22;23904;52.322;10.232;2023-05-10T15:19:13;18.60;99.90
38090;DHT22;23904;52.322;10.232;2023-05-10T15:21:38;18.50;99.90
38090;DHT22;23904;52.322;10.232;2023-05-10T15:24:07;18.60;99.90
38090;DHT22;23904;52.322;10.232;2023-05-10T15:26:33;18.60;99.90
38090;DHT22;23904;52.322;10.232;2023-05-10T15:28:59;18.60;99.90
38090;DHT22;23904;52.322;10.232;2023-05-10T15:31:24;18.60;99.90
38090;DHT22;23904;52.322;10.232;2023-05-10T15:33:50;18.50;99.90
38090;DHT22;23904;52.322;10.232;2023-05-10T15:36:16;18.50;99.90
38090;DHT22;23904;52.322;10.232;2023-05-10T15:38:43;18.40;99.90
38090;DHT22;23904;52.322;10.232;2023-05-10T15:41:09;18.40;99.90
38090;DHT22;23904;52.322;10.232;2023-05-10T15:43:34;18.40;99.90
38090;DHT22;23904;52.322;10.232;2023-05-10T15:46:00;18.40;99.90
38090;DHT22;23904;52.322;10.232;2023-05-10T15:48:26;18.40;99.90
38090;DHT22;23904;52.322;10.232;2023-05-10T15:50:51;18.40;99.90
38090;DHT22;23904;52.322;10.232;2023-05-10T15:53:17;18.30;99.90